Terminal Aerodrome Forecast
Issued by NWS Wilmington, OH

Home | Current Version | Previous Version | Text Only | Print | Product List | Glossary On
Versions: 1 2 3 4 5 6 7 8 9 10 11 12 13 14 15 16 17 18 19
598
FTUS41 KILN 250545
TAFCMH
TAF
KCMH 250545Z 2506/2606 20009KT P6SM BKN250 WS020/23045KT
     FM251100 23008KT P6SM BKN120
     FM251500 29011G18KT P6SM BKN025
     FM252100 30012G18KT P6SM BKN035
     FM260200 31010KT P6SM SCT035=

USA.gov is the U.S. government's official web portal to all federal, state and local government web resources and services.